createdAt,value
2022-11-30T00:01:23.828Z,35.30
2022-11-30T00:03:57.792Z,35.36
2022-11-30T00:06:27.796Z,35.25
2022-11-30T00:08:58.790Z,35.22
2022-11-30T00:11:29.465Z,35.19
2022-11-30T00:13:59.562Z,35.10
2022-11-30T00:16:29.741Z,35.12
2022-11-30T00:19:00.310Z,35.10
2022-11-30T00:21:30.355Z,35.10
2022-11-30T00:24:00.599Z,35.09
2022-11-30T00:26:30.819Z,35.05
2022-11-30T00:29:01.308Z,35.08
2022-11-30T00:31:32.530Z,35.01
2022-11-30T00:34:03.060Z,34.98
2022-11-30T00:36:33.156Z,34.96
2022-11-30T00:39:05.597Z,34.93
2022-11-30T00:41:35.712Z,34.97
2022-11-30T00:44:05.877Z,34.96
2022-11-30T00:46:36.508Z,34.91
2022-11-30T00:49:09.960Z,34.91
2022-11-30T00:51:40.165Z,34.87
2022-11-30T00:54:10.240Z,34.86
2022-11-30T00:56:40.347Z,34.92
2022-11-30T00:59:10.600Z,34.67
2022-11-30T01:01:41.816Z,34.80
2022-11-30T01:04:12.315Z,34.83
2022-11-30T01:06:42.217Z,34.81
2022-11-30T01:09:12.954Z,34.77
2022-11-30T01:11:42.993Z,34.78
2022-11-30T01:14:19.171Z,34.81
2022-11-30T01:16:54.737Z,34.79
2022-11-30T01:19:20.705Z,34.75
2022-11-30T01:21:50.898Z,34.76
2022-11-30T01:24:20.814Z,34.76
2022-11-30T01:26:50.878Z,34.70
2022-11-30T01:29:20.792Z,34.67
2022-11-30T01:31:50.868Z,34.62
2022-11-30T01:34:20.850Z,34.64
2022-11-30T01:36:51.074Z,34.60
2022-11-30T01:39:21.390Z,34.61
2022-11-30T01:41:51.835Z,34.61
2022-11-30T01:44:26.337Z,34.58
2022-11-30T01:47:07.304Z,34.57
2022-11-30T01:49:45.532Z,34.53
2022-11-30T01:52:21.378Z,34.55
2022-11-30T01:54:54.158Z,34.51
2022-11-30T01:57:38.332Z,34.52
2022-11-30T02:00:11.791Z,34.18
2022-11-30T02:02:57.073Z,34.34
2022-11-30T02:05:27.763Z,34.44
2022-11-30T02:07:58.331Z,34.33
2022-11-30T02:10:33.644Z,34.56
2022-11-30T02:13:21.671Z,34.70
2022-11-30T02:19:08.474Z,34.68
2022-11-30T02:21:50.007Z,34.68
2022-11-30T02:24:38.255Z,34.68
2022-11-30T02:27:27.639Z,34.69
2022-11-30T02:30:09.550Z,34.69
2022-11-30T02:32:45.248Z,34.78
2022-11-30T02:35:16.944Z,34.77
2022-11-30T02:37:47.959Z,34.75
2022-11-30T02:40:19.429Z,34.75
2022-11-30T02:42:54.190Z,34.75
2022-11-30T02:45:36.359Z,34.74
2022-11-30T02:48:08.150Z,34.72
2022-11-30T02:50:48.670Z,34.69
2022-11-30T02:53:23.950Z,34.68
2022-11-30T02:55:56.627Z,34.68
2022-11-30T02:58:26.867Z,34.67
2022-11-30T03:00:57.104Z,34.67
2022-11-30T03:03:27.445Z,34.67
2022-11-30T03:05:57.779Z,34.70
2022-11-30T03:08:27.779Z,34.73
2022-11-30T03:10:57.951Z,34.74
2022-11-30T03:13:28.029Z,34.83
2022-11-30T03:15:58.104Z,35.02
2022-11-30T03:18:28.305Z,35.00
2022-11-30T03:20:58.574Z,34.99
2022-11-30T03:23:28.558Z,34.96
2022-11-30T03:26:00.235Z,34.97
2022-11-30T03:28:30.227Z,34.97
2022-11-30T03:31:00.852Z,34.82
2022-11-30T03:33:37.107Z,34.80
2022-11-30T03:36:09.203Z,34.78
2022-11-30T03:38:39.961Z,34.78
2022-11-30T03:41:18.756Z,34.78
2022-11-30T03:43:49.060Z,34.75
2022-11-30T03:46:19.781Z,34.71
2022-11-30T03:48:50.238Z,34.68
2022-11-30T03:51:20.177Z,34.67
2022-11-30T03:53:50.299Z,34.64
2022-11-30T03:56:22.094Z,34.64
2022-11-30T03:58:54.750Z,34.57
2022-11-30T04:01:24.816Z,34.51
2022-11-30T04:03:55.401Z,34.54
2022-11-30T04:06:25.368Z,34.50
2022-11-30T04:08:55.833Z,34.51
2022-11-30T04:11:26.147Z,34.46
2022-11-30T04:13:56.344Z,34.43
2022-11-30T04:16:26.673Z,34.42
2022-11-30T04:18:57.014Z,34.38
2022-11-30T04:21:27.243Z,34.33
2022-11-30T04:23:57.396Z,34.34
2022-11-30T04:26:27.432Z,34.28
2022-11-30T04:28:57.561Z,34.25
2022-11-30T04:31:29.448Z,34.25
2022-11-30T04:34:01.247Z,34.21
2022-11-30T04:36:31.362Z,34.17
2022-11-30T04:39:01.395Z,34.17
2022-11-30T04:41:32.245Z,34.15
2022-11-30T04:44:02.326Z,34.01
2022-11-30T04:46:32.620Z,34.13
2022-11-30T04:49:04.543Z,34.13
2022-11-30T04:51:34.877Z,34.15
2022-11-30T04:54:05.095Z,34.14
2022-11-30T04:56:35.345Z,34.17
2022-11-30T04:59:05.369Z,34.19
2022-11-30T05:01:36.026Z,34.17
2022-11-30T05:04:06.649Z,34.19
2022-11-30T05:06:36.752Z,34.16
2022-11-30T05:09:07.098Z,34.18
2022-11-30T05:11:37.223Z,34.15
2022-11-30T05:14:07.479Z,34.15
2022-11-30T05:16:37.833Z,34.13
2022-11-30T05:19:07.978Z,34.14
2022-11-30T05:21:41.351Z,34.13
2022-11-30T05:24:10.302Z,34.12
2022-11-30T05:26:40.558Z,34.12
2022-11-30T05:29:10.306Z,34.10
2022-11-30T05:31:41.851Z,34.08
2022-11-30T05:34:12.305Z,34.08
2022-11-30T05:36:42.582Z,34.07
2022-11-30T05:39:13.313Z,34.06
2022-11-30T05:41:43.451Z,34.05
2022-11-30T05:44:14.406Z,34.03
2022-11-30T05:46:45.712Z,34.04
2022-11-30T05:49:16.801Z,34.04
2022-11-30T05:51:47.831Z,34.01
2022-11-30T05:54:18.973Z,34.00
2022-11-30T05:56:54.442Z,34.00
2022-11-30T05:59:21.942Z,33.97
2022-11-30T06:01:53.836Z,34.00
2022-11-30T06:04:24.100Z,33.94
2022-11-30T06:06:55.629Z,33.94
2022-11-30T06:09:26.216Z,33.89
2022-11-30T06:11:56.522Z,33.87
2022-11-30T06:14:26.556Z,33.81
2022-11-30T06:16:56.895Z,33.78
2022-11-30T06:19:27.425Z,33.74
2022-11-30T06:21:57.488Z,33.74
2022-11-30T06:24:27.858Z,33.71
2022-11-30T06:26:57.814Z,33.66
2022-11-30T06:29:28.214Z,33.64
2022-11-30T06:31:59.234Z,33.62
2022-11-30T06:34:29.002Z,33.58
2022-11-30T06:37:00.009Z,33.55
2022-11-30T06:39:57.959Z,33.54
2022-11-30T06:42:02.184Z,33.51
2022-11-30T06:44:32.732Z,33.51
2022-11-30T06:47:03.251Z,33.44
2022-11-30T06:49:33.379Z,33.41
2022-11-30T06:52:03.725Z,33.37
2022-11-30T06:54:37.421Z,33.35
2022-11-30T06:57:09.958Z,33.30
2022-11-30T06:59:41.719Z,33.27
2022-11-30T07:02:18.530Z,33.27
2022-11-30T07:04:53.034Z,33.16
2022-11-30T07:07:23.284Z,33.28
2022-11-30T07:09:53.773Z,33.34
2022-11-30T07:12:24.149Z,33.34
2022-11-30T07:14:55.683Z,33.33
2022-11-30T07:17:25.989Z,33.31
2022-11-30T07:19:56.137Z,33.26
2022-11-30T07:22:29.311Z,33.26
2022-11-30T07:25:20.107Z,33.25
2022-11-30T07:27:50.372Z,33.24
2022-11-30T07:30:20.884Z,33.19
2022-11-30T07:32:51.044Z,33.19
2022-11-30T07:35:21.416Z,33.18
2022-11-30T07:37:52.194Z,33.17
2022-11-30T07:40:22.806Z,33.15
2022-11-30T07:42:55.799Z,33.13
2022-11-30T07:45:25.867Z,33.15
2022-11-30T07:47:56.600Z,33.13
2022-11-30T07:50:27.658Z,33.12
2022-11-30T07:52:57.811Z,33.11
2022-11-30T07:55:28.024Z,33.10
2022-11-30T07:57:57.969Z,33.07
2022-11-30T08:00:28.014Z,33.08
2022-11-30T08:02:58.347Z,33.06
2022-11-30T08:05:28.758Z,33.07
2022-11-30T08:07:59.103Z,33.09
2022-11-30T08:10:29.184Z,33.09
2022-11-30T08:12:59.649Z,33.05
2022-11-30T08:15:33.073Z,33.07
2022-11-30T08:18:04.118Z,33.04
2022-11-30T08:20:34.272Z,32.99
2022-11-30T08:23:04.744Z,32.96
2022-11-30T08:25:36.049Z,32.95
2022-11-30T08:28:06.608Z,32.88
2022-11-30T08:30:37.534Z,32.85
2022-11-30T08:33:07.727Z,32.85
2022-11-30T08:35:37.920Z,32.80
2022-11-30T08:38:07.838Z,32.78
2022-11-30T08:40:38.056Z,32.75
2022-11-30T08:43:09.076Z,32.73
2022-11-30T08:45:39.739Z,32.68
2022-11-30T08:48:10.366Z,32.70
2022-11-30T08:50:40.481Z,32.65
2022-11-30T08:53:10.688Z,32.62
2022-11-30T08:55:40.829Z,32.62
2022-11-30T08:58:10.855Z,32.51
2022-11-30T09:00:43.396Z,32.58
2022-11-30T09:03:13.669Z,32.66
2022-11-30T09:05:43.837Z,32.68
2022-11-30T09:08:15.167Z,32.68
2022-11-30T09:10:46.419Z,32.65
2022-11-30T09:13:17.268Z,32.63
2022-11-30T09:15:49.984Z,32.62
2022-11-30T09:18:20.945Z,32.59
2022-11-30T09:20:51.290Z,32.56
2022-11-30T09:23:22.429Z,32.53
2022-11-30T09:25:57.618Z,32.53
2022-11-30T09:28:28.270Z,32.49
2022-11-30T09:30:59.855Z,32.49
2022-11-30T09:33:30.335Z,32.47
2022-11-30T09:36:00.997Z,32.47
2022-11-30T09:38:33.989Z,32.46
2022-11-30T09:41:04.315Z,32.42
2022-11-30T09:43:46.969Z,32.41
2022-11-30T09:46:17.704Z,32.38
2022-11-30T09:49:10.704Z,32.36
2022-11-30T09:51:51.277Z,32.37
2022-11-30T09:54:27.376Z,32.33
2022-11-30T09:56:58.731Z,32.33
2022-11-30T09:59:30.945Z,32.29
2022-11-30T10:02:01.829Z,32.27
2022-11-30T10:04:32.356Z,32.27
2022-11-30T10:07:38.451Z,32.27
2022-11-30T10:10:34.532Z,32.24
2022-11-30T10:13:19.208Z,32.22
2022-11-30T10:16:06.011Z,32.19
2022-11-30T10:19:03.012Z,32.16
2022-11-30T10:22:00.419Z,32.16
2022-11-30T10:24:38.859Z,32.13
2022-11-30T10:27:14.505Z,32.14
2022-11-30T10:29:45.629Z,32.08
2022-11-30T10:32:21.172Z,32.04
2022-11-30T10:35:02.886Z,31.98
2022-11-30T10:37:45.788Z,31.96
2022-11-30T10:40:20.533Z,31.84
2022-11-30T10:42:54.038Z,31.81
2022-11-30T10:45:24.980Z,31.67
2022-11-30T10:48:09.921Z,31.71
2022-11-30T10:50:40.050Z,31.65
2022-11-30T10:53:13.079Z,31.60
2022-11-30T10:55:49.257Z,31.53
2022-11-30T10:58:24.641Z,31.45
2022-11-30T11:01:12.551Z,31.40
2022-11-30T11:03:43.255Z,31.31
2022-11-30T11:06:24.942Z,31.27
2022-11-30T11:08:55.883Z,31.19
2022-11-30T11:11:35.616Z,31.20
2022-11-30T11:14:17.991Z,31.22
2022-11-30T11:16:56.941Z,31.23
2022-11-30T11:19:37.554Z,31.26
2022-11-30T11:22:25.996Z,31.36
2022-11-30T11:25:15.702Z,31.41
2022-11-30T11:27:46.319Z,31.40
2022-11-30T11:30:31.477Z,31.39
2022-11-30T11:33:16.368Z,31.56
2022-11-30T11:38:54.681Z,31.35
2022-11-30T11:41:30.070Z,31.33
2022-11-30T11:44:11.977Z,31.32
2022-11-30T11:47:02.455Z,31.27
2022-11-30T11:49:37.250Z,31.27
2022-11-30T11:52:14.901Z,31.22
2022-11-30T11:54:59.200Z,31.21
2022-11-30T11:57:38.003Z,31.19
2022-11-30T12:00:15.846Z,31.20
2022-11-30T12:02:57.239Z,31.17
2022-11-30T12:05:48.966Z,31.19
2022-11-30T12:08:38.819Z,31.16
2022-11-30T12:11:20.909Z,31.14
2022-11-30T12:13:51.335Z,31.12
2022-11-30T12:16:52.670Z,31.13
2022-11-30T12:19:37.779Z,31.12
2022-11-30T12:22:42.084Z,31.10
2022-11-30T12:25:30.991Z,31.06
2022-11-30T12:28:29.403Z,31.06
2022-11-30T12:31:19.492Z,31.05
2022-11-30T12:33:55.599Z,31.02
2022-11-30T12:36:43.116Z,31.02
2022-11-30T12:39:21.940Z,30.99
2022-11-30T12:42:05.449Z,30.98
2022-11-30T12:44:44.215Z,30.95
2022-11-30T12:47:36.319Z,30.93
2022-11-30T12:50:23.727Z,30.92
2022-11-30T12:52:56.622Z,30.89
2022-11-30T12:55:29.540Z,30.86
2022-11-30T12:58:05.405Z,30.87
2022-11-30T13:00:41.295Z,30.91
2022-11-30T13:03:14.561Z,30.93
2022-11-30T13:06:01.712Z,30.94
2022-11-30T13:08:43.639Z,30.90
2022-11-30T13:11:19.565Z,30.90
2022-11-30T13:13:53.587Z,30.88
2022-11-30T13:16:22.991Z,30.76
2022-11-30T13:18:55.156Z,30.69
2022-11-30T13:21:30.813Z,30.62
2022-11-30T13:24:03.861Z,30.66
2022-11-30T13:26:44.755Z,30.66
2022-11-30T13:29:20.588Z,30.57
2022-11-30T13:32:00.604Z,30.50
2022-11-30T13:34:31.842Z,30.50
2022-11-30T13:37:15.443Z,30.50
2022-11-30T13:39:54.457Z,30.43
2022-11-30T13:42:38.656Z,30.44
2022-11-30T13:45:20.377Z,30.43
2022-11-30T13:47:52.195Z,30.39
2022-11-30T13:50:39.915Z,30.31
2022-11-30T13:53:12.741Z,30.30
2022-11-30T13:55:51.435Z,30.31
2022-11-30T13:58:22.435Z,30.33
2022-11-30T14:07:00.262Z,30.30
2022-11-30T14:09:50.913Z,30.24
2022-11-30T14:12:41.619Z,30.21
2022-11-30T14:15:35.671Z,30.18
2022-11-30T14:18:07.345Z,30.27
2022-11-30T14:20:43.613Z,30.26
2022-11-30T14:23:18.748Z,30.13
2022-11-30T14:25:53.557Z,30.09
2022-11-30T14:28:25.852Z,30.12
2022-11-30T14:30:56.922Z,30.15
2022-11-30T14:33:35.670Z,30.12
2022-11-30T14:36:05.826Z,30.15
2022-11-30T14:38:36.479Z,30.23
2022-11-30T14:41:06.666Z,30.22
2022-11-30T14:43:36.556Z,30.18
2022-11-30T14:46:12.964Z,30.08
2022-11-30T14:48:39.485Z,30.08
2022-11-30T14:51:11.168Z,30.05
2022-11-30T14:53:52.773Z,30.13
2022-11-30T14:56:37.506Z,30.18
2022-11-30T14:59:29.311Z,30.03
2022-11-30T15:02:01.252Z,30.05
2022-11-30T15:04:33.595Z,30.12
2022-11-30T15:07:04.046Z,30.25
2022-11-30T15:09:38.186Z,30.32
2022-11-30T15:12:09.988Z,30.36
2022-11-30T15:14:40.183Z,30.38
2022-11-30T15:17:24.391Z,30.37
2022-11-30T15:19:58.748Z,30.38
2022-11-30T15:22:29.110Z,30.41
2022-11-30T15:25:19.022Z,30.41
2022-11-30T15:27:49.288Z,30.41
2022-11-30T15:30:24.683Z,30.41
2022-11-30T15:32:55.482Z,30.43
2022-11-30T15:35:38.754Z,30.44
2022-11-30T15:37:59.397Z,30.44
2022-11-30T15:40:35.251Z,30.46
2022-11-30T15:43:05.420Z,30.46
2022-11-30T15:45:36.961Z,30.50
2022-11-30T15:48:07.440Z,30.50
2022-11-30T15:53:54.047Z,30.50
2022-11-30T15:56:30.300Z,30.52
2022-11-30T15:59:13.110Z,30.54
2022-11-30T16:02:13.948Z,30.56
2022-11-30T16:05:08.400Z,30.55
2022-11-30T16:07:54.067Z,30.54
2022-11-30T16:10:28.541Z,30.56
2022-11-30T16:12:58.608Z,30.56
2022-11-30T16:15:30.281Z,30.55
2022-11-30T16:18:02.117Z,30.55
2022-11-30T16:20:32.616Z,30.59
2022-11-30T16:23:05.990Z,30.58
2022-11-30T16:25:34.368Z,30.56
2022-11-30T16:28:04.369Z,30.55
2022-11-30T16:30:35.847Z,30.52
2022-11-30T16:33:06.036Z,30.50
2022-11-30T16:35:41.154Z,30.42
2022-11-30T16:38:11.343Z,30.45
2022-11-30T16:40:41.569Z,30.45
2022-11-30T16:43:13.206Z,30.44
2022-11-30T16:45:44.661Z,30.41
2022-11-30T16:48:16.515Z,30.41
2022-11-30T16:50:48.557Z,30.36
2022-11-30T16:53:19.625Z,30.37
2022-11-30T16:55:50.720Z,30.33
2022-11-30T16:58:21.894Z,30.23
2022-11-30T17:00:52.329Z,30.30
2022-11-30T17:03:28.046Z,30.30
2022-11-30T17:05:58.430Z,30.34
2022-11-30T17:08:28.718Z,30.33
2022-11-30T17:10:58.791Z,30.35
2022-11-30T17:13:28.828Z,30.29
2022-11-30T17:15:59.026Z,30.26
2022-11-30T17:18:29.081Z,30.27
2022-11-30T17:20:59.159Z,30.25
2022-11-30T17:23:29.978Z,30.28
2022-11-30T17:26:01.021Z,30.26
2022-11-30T17:28:33.336Z,30.19
2022-11-30T17:31:03.879Z,30.17
2022-11-30T17:33:35.489Z,30.22
2022-11-30T17:36:06.729Z,30.26
2022-11-30T17:38:37.809Z,30.24
2022-11-30T17:41:14.277Z,30.21
2022-11-30T17:43:42.827Z,30.23
2022-11-30T17:46:15.074Z,30.21
2022-11-30T17:48:45.137Z,30.19
2022-11-30T17:51:15.302Z,30.13
2022-11-30T17:53:45.637Z,30.12
2022-11-30T17:56:17.308Z,30.12
2022-11-30T17:58:48.870Z,30.14
2022-11-30T18:01:26.863Z,30.16
2022-11-30T18:03:56.983Z,30.17
2022-11-30T18:06:27.587Z,29.26
2022-11-30T18:08:58.784Z,29.37
2022-11-30T18:11:28.826Z,29.43
2022-11-30T18:13:58.918Z,29.25
2022-11-30T18:16:30.668Z,29.40
2022-11-30T18:19:00.722Z,29.43
2022-11-30T18:21:31.623Z,29.53
2022-11-30T18:24:01.813Z,29.69
2022-11-30T18:26:32.064Z,29.72
2022-11-30T18:29:03.565Z,29.95
2022-11-30T18:31:34.070Z,29.95
2022-11-30T18:34:05.794Z,29.87
2022-11-30T18:36:35.789Z,29.88
2022-11-30T18:39:06.312Z,30.02
2022-11-30T18:41:36.640Z,30.04
2022-11-30T18:44:06.618Z,30.04
2022-11-30T18:46:36.721Z,30.07
2022-11-30T18:49:07.736Z,30.16
2022-11-30T18:51:38.156Z,30.21
2022-11-30T18:54:09.405Z,30.19
2022-11-30T18:56:40.182Z,30.28
2022-11-30T18:59:12.868Z,30.21
2022-11-30T19:01:43.066Z,30.36
2022-11-30T19:04:13.325Z,30.46
2022-11-30T19:06:43.648Z,30.39
2022-11-30T19:09:15.381Z,30.36
2022-11-30T19:11:45.422Z,30.15
2022-11-30T19:14:15.998Z,30.02
2022-11-30T19:16:45.984Z,30.08
2022-11-30T19:19:16.291Z,30.15
2022-11-30T19:21:48.068Z,30.27
2022-11-30T19:24:18.823Z,30.34
2022-11-30T19:26:50.240Z,30.37
2022-11-30T19:29:21.265Z,30.39
2022-11-30T19:31:51.976Z,30.19
2022-11-30T19:34:24.617Z,30.19
2022-11-30T19:36:54.628Z,30.44
2022-11-30T19:39:24.599Z,30.49
2022-11-30T19:44:29.381Z,30.51
2022-11-30T19:46:59.391Z,30.52
2022-11-30T19:49:29.643Z,30.48
2022-11-30T19:51:59.482Z,30.57
2022-11-30T19:54:32.558Z,30.59
2022-11-30T19:57:02.697Z,30.62
2022-11-30T19:59:32.639Z,30.67
2022-11-30T20:02:02.819Z,30.67
2022-11-30T20:04:32.839Z,30.67
2022-11-30T20:07:03.196Z,30.65
2022-11-30T20:09:35.965Z,30.67
2022-11-30T20:12:07.250Z,30.68
2022-11-30T20:14:38.504Z,30.67
2022-11-30T20:17:09.256Z,30.73
2022-11-30T20:19:44.769Z,30.63
2022-11-30T20:22:14.776Z,30.68
2022-11-30T20:24:46.392Z,30.67
2022-11-30T20:27:18.054Z,30.75
2022-11-30T20:29:50.574Z,30.92
2022-11-30T20:32:21.338Z,31.02
2022-11-30T20:34:52.297Z,30.86
2022-11-30T20:37:22.936Z,30.82
2022-11-30T20:39:54.945Z,30.74
2022-11-30T20:42:24.916Z,30.77
2022-11-30T20:44:55.067Z,30.77
2022-11-30T20:47:27.522Z,30.77
2022-11-30T20:49:58.155Z,30.73
2022-11-30T20:52:30.562Z,30.77
2022-11-30T20:55:00.689Z,30.76
2022-11-30T20:57:31.175Z,30.76
2022-11-30T21:00:01.247Z,30.72
2022-11-30T21:02:31.410Z,30.75
2022-11-30T21:05:03.432Z,30.75
2022-11-30T21:07:34.741Z,30.78
2022-11-30T21:10:22.353Z,30.82
2022-11-30T21:12:55.337Z,30.83
2022-11-30T21:15:28.450Z,30.81
2022-11-30T21:18:04.406Z,30.80
2022-11-30T21:20:41.822Z,30.80
2022-11-30T21:23:20.932Z,30.77
2022-11-30T21:25:53.269Z,30.73
2022-11-30T21:28:25.430Z,30.75
2022-11-30T21:30:58.315Z,30.66
2022-11-30T21:33:31.261Z,30.51
2022-11-30T21:36:04.046Z,30.68
2022-11-30T21:38:44.323Z,30.89
2022-11-30T21:41:18.948Z,30.85
2022-11-30T21:43:52.614Z,30.99
2022-11-30T21:46:45.710Z,30.99
2022-11-30T21:49:17.137Z,31.03
2022-11-30T21:51:50.353Z,30.96
2022-11-30T21:54:20.921Z,30.97
2022-11-30T21:56:53.518Z,30.93
2022-11-30T21:59:28.270Z,30.98
2022-11-30T22:01:59.402Z,31.04
2022-11-30T22:04:31.343Z,31.08
2022-11-30T22:07:02.450Z,31.08
2022-11-30T22:09:33.179Z,31.07
2022-11-30T22:12:03.705Z,31.07
2022-11-30T22:14:36.791Z,31.11
2022-11-30T22:17:07.211Z,31.12
2022-11-30T22:19:38.399Z,31.11
2022-11-30T22:22:11.577Z,31.11
2022-11-30T22:24:40.530Z,31.13
2022-11-30T22:27:10.590Z,31.11
2022-11-30T22:29:46.091Z,31.12
2022-11-30T22:32:16.946Z,31.10
2022-11-30T22:34:47.412Z,31.12
2022-11-30T22:37:21.545Z,31.06
2022-11-30T22:39:51.450Z,31.05
2022-11-30T22:42:23.215Z,31.06
2022-11-30T22:45:00.000Z,31.07
2022-11-30T22:47:31.876Z,31.05
2022-11-30T22:50:02.416Z,31.08
2022-11-30T22:53:01.466Z,31.08
2022-11-30T22:55:04.277Z,31.06
2022-11-30T22:57:34.720Z,31.06
2022-11-30T23:00:06.502Z,31.05
2022-11-30T23:02:36.939Z,31.02
2022-11-30T23:05:10.538Z,31.02
2022-11-30T23:07:39.829Z,31.00
2022-11-30T23:10:11.554Z,30.98
2022-11-30T23:12:58.933Z,30.95
2022-11-30T23:15:14.563Z,30.95
2022-11-30T23:17:45.460Z,30.92
2022-11-30T23:20:17.274Z,30.88
2022-11-30T23:22:49.468Z,30.85
2022-11-30T23:25:19.822Z,30.81
2022-11-30T23:27:53.078Z,30.80
2022-11-30T23:30:26.049Z,30.79
2022-11-30T23:32:59.849Z,30.73
2022-11-30T23:35:30.998Z,30.73
2022-11-30T23:38:03.162Z,30.67
2022-11-30T23:40:35.548Z,30.64
2022-11-30T23:43:06.475Z,30.67
2022-11-30T23:45:45.739Z,30.65
2022-11-30T23:48:22.247Z,30.61
2022-11-30T23:50:53.804Z,30.61
2022-11-30T23:53:38.165Z,30.61
2022-11-30T23:56:11.501Z,30.52
2022-11-30T23:58:42.594Z,30.58
